sensor_id;sensor_type;location;lat;lon;timestamp;temperature;humidity
7700;DHT22;3892;47.794;19.126;2023-06-14T00:02:11;23.20;39.90
7700;DHT22;3892;47.794;19.126;2023-06-14T00:04:39;23.20;40.30
7700;DHT22;3892;47.794;19.126;2023-06-14T00:07:08;23.20;40.20
7700;DHT22;3892;47.794;19.126;2023-06-14T00:09:37;23.20;40.40
7700;DHT22;3892;47.794;19.126;2023-06-14T00:12:07;23.10;40.40
7700;DHT22;3892;47.794;19.126;2023-06-14T00:14:36;23.10;40.40
7700;DHT22;3892;47.794;19.126;2023-06-14T00:17:04;23.10;40.70
7700;DHT22;3892;47.794;19.126;2023-06-14T00:19:34;23.10;40.50
7700;DHT22;3892;47.794;19.126;2023-06-14T00:22:03;23.00;40.70
7700;DHT22;3892;47.794;19.126;2023-06-14T00:24:32;23.00;40.80
7700;DHT22;3892;47.794;19.126;2023-06-14T00:27:00;23.00;40.80
7700;DHT22;3892;47.794;19.126;2023-06-14T00:29:29;22.90;40.70
7700;DHT22;3892;47.794;19.126;2023-06-14T00:31:57;22.90;40.90
7700;DHT22;3892;47.794;19.126;2023-06-14T00:34:26;22.90;40.80
7700;DHT22;3892;47.794;19.126;2023-06-14T00:36:54;22.90;40.80
7700;DHT22;3892;47.794;19.126;2023-06-14T00:39:22;22.90;41.10
7700;DHT22;3892;47.794;19.126;2023-06-14T00:41:50;22.80;41.20
7700;DHT22;3892;47.794;19.126;2023-06-14T00:44:18;22.80;41.10
7700;DHT22;3892;47.794;19.126;2023-06-14T00:46:48;22.80;41.00
7700;DHT22;3892;47.794;19.126;2023-06-14T00:49:17;22.70;41.10
7700;DHT22;3892;47.794;19.126;2023-06-14T00:51:46;22.70;41.10
7700;DHT22;3892;47.794;19.126;2023-06-14T00:54:14;22.70;41.10
7700;DHT22;3892;47.794;19.126;2023-06-14T00:56:44;22.70;41.20
7700;DHT22;3892;47.794;19.126;2023-06-14T00:59:12;22.60;41.00
7700;DHT22;3892;47.794;19.126;2023-06-14T01:01:42;22.60;41.20
7700;DHT22;3892;47.794;19.126;2023-06-14T01:04:11;22.60;41.20
7700;DHT22;3892;47.794;19.126;2023-06-14T01:06:45;22.50;41.10
7700;DHT22;3892;47.794;19.126;2023-06-14T01:09:20;22.50;41.10
7700;DHT22;3892;47.794;19.126;2023-06-14T01:11:59;22.50;41.00
7700;DHT22;3892;47.794;19.126;2023-06-14T01:14:29;22.40;41.10
7700;DHT22;3892;47.794;19.126;2023-06-14T01:16:59;22.40;41.30
7700;DHT22;3892;47.794;19.126;2023-06-14T01:19:30;22.40;41.30
7700;DHT22;3892;47.794;19.126;2023-06-14T01:22:01;22.40;41.30
7700;DHT22;3892;47.794;19.126;2023-06-14T01:24:31;22.40;41.40
7700;DHT22;3892;47.794;19.126;2023-06-14T01:27:02;22.30;41.30
7700;DHT22;3892;47.794;19.126;2023-06-14T01:29:31;22.30;41.40
7700;DHT22;3892;47.794;19.126;2023-06-14T01:32:00;22.30;41.40
7700;DHT22;3892;47.794;19.126;2023-06-14T01:34:29;22.20;41.40
7700;DHT22;3892;47.794;19.126;2023-06-14T01:36:58;22.20;41.30
7700;DHT22;3892;47.794;19.126;2023-06-14T01:39:28;22.20;41.40
7700;DHT22;3892;47.794;19.126;2023-06-14T01:41:59;22.20;41.40
7700;DHT22;3892;47.794;19.126;2023-06-14T01:44:28;22.20;41.60
7700;DHT22;3892;47.794;19.126;2023-06-14T01:46:58;22.20;41.50
7700;DHT22;3892;47.794;19.126;2023-06-14T01:49:26;22.10;41.30
7700;DHT22;3892;47.794;19.126;2023-06-14T01:51:55;22.20;41.40
7700;DHT22;3892;47.794;19.126;2023-06-14T01:54:23;22.10;41.30
7700;DHT22;3892;47.794;19.126;2023-06-14T01:56:52;22.10;41.30
7700;DHT22;3892;47.794;19.126;2023-06-14T01:59:22;22.10;41.10
7700;DHT22;3892;47.794;19.126;2023-06-14T02:01:50;22.10;41.10
7700;DHT22;3892;47.794;19.126;2023-06-14T02:04:18;22.00;41.30
7700;DHT22;3892;47.794;19.126;2023-06-14T02:06:46;21.90;41.40
7700;DHT22;3892;47.794;19.126;2023-06-14T02:09:14;21.90;41.50
7700;DHT22;3892;47.794;19.126;2023-06-14T02:11:43;21.90;41.40
7700;DHT22;3892;47.794;19.126;2023-06-14T02:14:11;21.90;41.40
7700;DHT22;3892;47.794;19.126;2023-06-14T02:16:40;21.90;41.60
7700;DHT22;3892;47.794;19.126;2023-06-14T02:19:16;21.80;41.50
7700;DHT22;3892;47.794;19.126;2023-06-14T02:21:44;21.80;41.60
7700;DHT22;3892;47.794;19.126;2023-06-14T02:24:12;21.80;41.60
7700;DHT22;3892;47.794;19.126;2023-06-14T02:26:41;21.80;41.60
7700;DHT22;3892;47.794;19.126;2023-06-14T02:29:09;21.80;41.50
7700;DHT22;3892;47.794;19.126;2023-06-14T02:31:40;21.80;41.60
7700;DHT22;3892;47.794;19.126;2023-06-14T02:34:09;21.70;41.60
7700;DHT22;3892;47.794;19.126;2023-06-14T02:36:37;21.70;41.70
7700;DHT22;3892;47.794;19.126;2023-06-14T02:39:08;21.70;41.70
7700;DHT22;3892;47.794;19.126;2023-06-14T02:41:37;21.70;41.80
7700;DHT22;3892;47.794;19.126;2023-06-14T02:44:05;21.70;41.80
7700;DHT22;3892;47.794;19.126;2023-06-14T02:46:34;21.70;41.90
7700;DHT22;3892;47.794;19.126;2023-06-14T02:49:03;21.70;42.00
7700;DHT22;3892;47.794;19.126;2023-06-14T02:51:31;21.70;42.00
7700;DHT22;3892;47.794;19.126;2023-06-14T02:53:59;21.60;41.90
7700;DHT22;3892;47.794;19.126;2023-06-14T02:56:28;21.60;41.90
7700;DHT22;3892;47.794;19.126;2023-06-14T02:58:57;21.60;41.80
7700;DHT22;3892;47.794;19.126;2023-06-14T03:01:25;21.60;41.80
7700;DHT22;3892;47.794;19.126;2023-06-14T03:04:00;21.60;41.90
7700;DHT22;3892;47.794;19.126;2023-06-14T03:06:31;21.60;41.80
7700;DHT22;3892;47.794;19.126;2023-06-14T03:09:00;21.60;41.80
7700;DHT22;3892;47.794;19.126;2023-06-14T03:11:31;21.60;41.90
7700;DHT22;3892;47.794;19.126;2023-06-14T03:14:00;21.50;41.80
7700;DHT22;3892;47.794;19.126;2023-06-14T03:16:30;21.50;41.90
7700;DHT22;3892;47.794;19.126;2023-06-14T03:18:58;21.50;42.00
7700;DHT22;3892;47.794;19.126;2023-06-14T03:21:26;21.50;42.00
7700;DHT22;3892;47.794;19.126;2023-06-14T03:23:56;21.50;41.90
7700;DHT22;3892;47.794;19.126;2023-06-14T03:26:24;21.50;42.00
7700;DHT22;3892;47.794;19.126;2023-06-14T03:28:53;21.50;42.20
7700;DHT22;3892;47.794;19.126;2023-06-14T03:31:21;21.50;42.20
7700;DHT22;3892;47.794;19.126;2023-06-14T03:33:50;21.50;42.30
7700;DHT22;3892;47.794;19.126;2023-06-14T03:36:18;21.60;42.30
7700;DHT22;3892;47.794;19.126;2023-06-14T03:38:46;21.50;42.30
7700;DHT22;3892;47.794;19.126;2023-06-14T03:41:16;21.60;42.30
7700;DHT22;3892;47.794;19.126;2023-06-14T03:43:44;21.60;42.30
7700;DHT22;3892;47.794;19.126;2023-06-14T03:46:12;21.60;42.30
7700;DHT22;3892;47.794;19.126;2023-06-14T03:48:40;21.60;42.30
7700;DHT22;3892;47.794;19.126;2023-06-14T03:51:09;21.70;42.40
7700;DHT22;3892;47.794;19.126;2023-06-14T03:53:37;21.60;42.30
7700;DHT22;3892;47.794;19.126;2023-06-14T03:56:07;21.70;42.50
7700;DHT22;3892;47.794;19.126;2023-06-14T03:58:37;21.70;42.50
7700;DHT22;3892;47.794;19.126;2023-06-14T04:01:05;21.70;42.40
7700;DHT22;3892;47.794;19.126;2023-06-14T04:03:33;21.70;42.40
7700;DHT22;3892;47.794;19.126;2023-06-14T04:06:01;21.70;42.40
7700;DHT22;3892;47.794;19.126;2023-06-14T04:08:30;21.70;42.50
7700;DHT22;3892;47.794;19.126;2023-06-14T04:10:58;21.70;42.50
7700;DHT22;3892;47.794;19.126;2023-06-14T04:13:26;21.70;42.60
7700;DHT22;3892;47.794;19.126;2023-06-14T04:15:56;21.70;42.70
7700;DHT22;3892;47.794;19.126;2023-06-14T04:18:24;21.70;42.50
7700;DHT22;3892;47.794;19.126;2023-06-14T04:20:52;21.80;42.50
7700;DHT22;3892;47.794;19.126;2023-06-14T04:23:21;21.80;42.40
7700;DHT22;3892;47.794;19.126;2023-06-14T04:25:50;21.80;42.50
7700;DHT22;3892;47.794;19.126;2023-06-14T04:28:18;21.70;42.40
7700;DHT22;3892;47.794;19.126;2023-06-14T04:30:46;21.80;42.70
7700;DHT22;3892;47.794;19.126;2023-06-14T04:33:16;21.80;42.80
7700;DHT22;3892;47.794;19.126;2023-06-14T04:35:44;21.80;42.70
7700;DHT22;3892;47.794;19.126;2023-06-14T04:38:14;21.90;42.70
7700;DHT22;3892;47.794;19.126;2023-06-14T04:40:42;21.90;42.60
7700;DHT22;3892;47.794;19.126;2023-06-14T04:43:11;21.90;42.70
7700;DHT22;3892;47.794;19.126;2023-06-14T04:45:39;22.00;42.70
7700;DHT22;3892;47.794;19.126;2023-06-14T04:48:12;22.00;42.70
7700;DHT22;3892;47.794;19.126;2023-06-14T04:50:41;22.00;42.50
7700;DHT22;3892;47.794;19.126;2023-06-14T04:53:09;22.00;42.20
7700;DHT22;3892;47.794;19.126;2023-06-14T04:55:38;21.90;42.20
7700;DHT22;3892;47.794;19.126;2023-06-14T04:58:06;21.90;42.20
7700;DHT22;3892;47.794;19.126;2023-06-14T05:00:35;21.80;42.00
7700;DHT22;3892;47.794;19.126;2023-06-14T05:03:03;21.90;42.40
7700;DHT22;3892;47.794;19.126;2023-06-14T05:05:33;21.90;42.40
7700;DHT22;3892;47.794;19.126;2023-06-14T05:08:03;21.90;42.00
7700;DHT22;3892;47.794;19.126;2023-06-14T05:10:32;22.00;43.00
7700;DHT22;3892;47.794;19.126;2023-06-14T05:13:01;22.00;43.20
7700;DHT22;3892;47.794;19.126;2023-06-14T05:15:29;22.00;42.30
7700;DHT22;3892;47.794;19.126;2023-06-14T05:17:58;22.10;42.50
7700;DHT22;3892;47.794;19.126;2023-06-14T05:20:26;22.00;42.30
7700;DHT22;3892;47.794;19.126;2023-06-14T05:22:54;22.00;42.20
7700;DHT22;3892;47.794;19.126;2023-06-14T05:25:24;22.00;42.20
7700;DHT22;3892;47.794;19.126;2023-06-14T05:27:54;22.00;42.40
7700;DHT22;3892;47.794;19.126;2023-06-14T05:30:23;22.10;42.30
7700;DHT22;3892;47.794;19.126;2023-06-14T05:32:51;22.10;42.30
7700;DHT22;3892;47.794;19.126;2023-06-14T05:35:19;22.10;42.00
7700;DHT22;3892;47.794;19.126;2023-06-14T05:37:49;22.20;42.30
7700;DHT22;3892;47.794;19.126;2023-06-14T05:40:17;22.30;42.40
7700;DHT22;3892;47.794;19.126;2023-06-14T05:42:46;22.30;42.50
7700;DHT22;3892;47.794;19.126;2023-06-14T05:45:14;22.40;42.10
7700;DHT22;3892;47.794;19.126;2023-06-14T05:47:43;22.40;42.30
7700;DHT22;3892;47.794;19.126;2023-06-14T05:50:11;22.40;42.40
7700;DHT22;3892;47.794;19.126;2023-06-14T05:52:39;22.40;42.00
7700;DHT22;3892;47.794;19.126;2023-06-14T05:55:08;22.40;42.10
7700;DHT22;3892;47.794;19.126;2023-06-14T05:57:38;22.40;42.40
7700;DHT22;3892;47.794;19.126;2023-06-14T06:00:09;22.40;43.10
7700;DHT22;3892;47.794;19.126;2023-06-14T06:02:41;22.40;42.60
7700;DHT22;3892;47.794;19.126;2023-06-14T06:05:10;22.50;42.40
7700;DHT22;3892;47.794;19.126;2023-06-14T06:07:39;22.50;42.30
7700;DHT22;3892;47.794;19.126;2023-06-14T06:10:08;22.60;42.60
7700;DHT22;3892;47.794;19.126;2023-06-14T06:12:36;22.50;42.10
7700;DHT22;3892;47.794;19.126;2023-06-14T06:15:05;22.50;42.60
7700;DHT22;3892;47.794;19.126;2023-06-14T06:17:35;22.50;42.60
7700;DHT22;3892;47.794;19.126;2023-06-14T06:20:12;22.40;42.50
7700;DHT22;3892;47.794;19.126;2023-06-14T06:22:40;22.40;42.60
7700;DHT22;3892;47.794;19.126;2023-06-14T06:25:09;22.40;42.60
7700;DHT22;3892;47.794;19.126;2023-06-14T06:27:37;22.50;42.80
7700;DHT22;3892;47.794;19.126;2023-06-14T06:30:07;22.50;42.80
7700;DHT22;3892;47.794;19.126;2023-06-14T06:32:37;22.60;43.00
7700;DHT22;3892;47.794;19.126;2023-06-14T06:35:05;22.70;43.20
7700;DHT22;3892;47.794;19.126;2023-06-14T06:37:35;22.80;42.90
7700;DHT22;3892;47.794;19.126;2023-06-14T06:40:04;22.90;43.10
7700;DHT22;3892;47.794;19.126;2023-06-14T06:42:34;22.90;42.90
7700;DHT22;3892;47.794;19.126;2023-06-14T06:45:03;23.00;43.20
7700;DHT22;3892;47.794;19.126;2023-06-14T06:47:31;23.00;43.10
7700;DHT22;3892;47.794;19.126;2023-06-14T06:50:01;23.00;43.10
7700;DHT22;3892;47.794;19.126;2023-06-14T06:52:29;23.10;43.40
7700;DHT22;3892;47.794;19.126;2023-06-14T06:54:57;23.20;43.60
7700;DHT22;3892;47.794;19.126;2023-06-14T06:57:25;23.30;43.90
7700;DHT22;3892;47.794;19.126;2023-06-14T06:59:53;23.40;43.20
7700;DHT22;3892;47.794;19.126;2023-06-14T07:02:21;23.40;43.00
7700;DHT22;3892;47.794;19.126;2023-06-14T07:04:50;23.40;43.30
7700;DHT22;3892;47.794;19.126;2023-06-14T07:07:19;23.50;42.80
7700;DHT22;3892;47.794;19.126;2023-06-14T07:09:47;23.50;42.80
7700;DHT22;3892;47.794;19.126;2023-06-14T07:12:16;23.50;42.60
7700;DHT22;3892;47.794;19.126;2023-06-14T07:14:44;23.40;42.80
7700;DHT22;3892;47.794;19.126;2023-06-14T07:17:12;23.50;43.10
7700;DHT22;3892;47.794;19.126;2023-06-14T07:19:40;23.50;43.40
7700;DHT22;3892;47.794;19.126;2023-06-14T07:22:08;23.60;43.40
7700;DHT22;3892;47.794;19.126;2023-06-14T07:24:37;23.70;43.10
7700;DHT22;3892;47.794;19.126;2023-06-14T07:27:07;23.70;42.60
7700;DHT22;3892;47.794;19.126;2023-06-14T07:29:35;23.70;42.40
7700;DHT22;3892;47.794;19.126;2023-06-14T07:32:04;23.60;42.30
7700;DHT22;3892;47.794;19.126;2023-06-14T07:34:32;23.70;42.70
7700;DHT22;3892;47.794;19.126;2023-06-14T07:37:00;23.60;42.90
7700;DHT22;3892;47.794;19.126;2023-06-14T07:39:29;23.70;43.10
7700;DHT22;3892;47.794;19.126;2023-06-14T07:41:58;23.70;42.70
7700;DHT22;3892;47.794;19.126;2023-06-14T07:44:29;23.70;42.90
7700;DHT22;3892;47.794;19.126;2023-06-14T07:46:57;23.70;42.90
7700;DHT22;3892;47.794;19.126;2023-06-14T07:49:27;23.70;42.60
7700;DHT22;3892;47.794;19.126;2023-06-14T07:51:55;23.70;42.20
7700;DHT22;3892;47.794;19.126;2023-06-14T07:54:23;23.60;42.40
7700;DHT22;3892;47.794;19.126;2023-06-14T07:56:53;23.70;42.50
7700;DHT22;3892;47.794;19.126;2023-06-14T07:59:22;23.80;42.50
7700;DHT22;3892;47.794;19.126;2023-06-14T08:01:50;24.00;42.60
7700;DHT22;3892;47.794;19.126;2023-06-14T08:04:18;23.90;41.70
7700;DHT22;3892;47.794;19.126;2023-06-14T08:06:47;24.00;41.70
7700;DHT22;3892;47.794;19.126;2023-06-14T08:09:15;23.90;41.70
7700;DHT22;3892;47.794;19.126;2023-06-14T08:11:43;23.90;41.40
7700;DHT22;3892;47.794;19.126;2023-06-14T08:14:11;23.90;41.70
7700;DHT22;3892;47.794;19.126;2023-06-14T08:16:41;24.00;41.70
7700;DHT22;3892;47.794;19.126;2023-06-14T08:19:09;24.00;41.80
7700;DHT22;3892;47.794;19.126;2023-06-14T08:21:37;24.10;42.30
7700;DHT22;3892;47.794;19.126;2023-06-14T08:24:06;24.20;42.10
7700;DHT22;3892;47.794;19.126;2023-06-14T08:26:34;24.30;42.20
7700;DHT22;3892;47.794;19.126;2023-06-14T08:29:03;24.30;41.90
7700;DHT22;3892;47.794;19.126;2023-06-14T08:31:32;24.40;41.60
7700;DHT22;3892;47.794;19.126;2023-06-14T08:34:01;24.50;41.30
7700;DHT22;3892;47.794;19.126;2023-06-14T08:36:30;24.40;41.30
7700;DHT22;3892;47.794;19.126;2023-06-14T08:38:58;24.60;41.80
7700;DHT22;3892;47.794;19.126;2023-06-14T08:41:28;24.70;41.90
7700;DHT22;3892;47.794;19.126;2023-06-14T08:43:56;24.70;41.80
7700;DHT22;3892;47.794;19.126;2023-06-14T08:46:26;24.80;41.40
7700;DHT22;3892;47.794;19.126;2023-06-14T08:48:56;24.80;41.00
7700;DHT22;3892;47.794;19.126;2023-06-14T08:51:28;24.90;41.00
7700;DHT22;3892;47.794;19.126;2023-06-14T08:54:03;24.90;41.20
7700;DHT22;3892;47.794;19.126;2023-06-14T08:56:31;25.00;41.70
7700;DHT22;3892;47.794;19.126;2023-06-14T08:59:00;25.10;42.00
7700;DHT22;3892;47.794;19.126;2023-06-14T09:01:34;25.20;41.90
7700;DHT22;3892;47.794;19.126;2023-06-14T09:04:02;25.20;41.80
7700;DHT22;3892;47.794;19.126;2023-06-14T09:06:33;25.30;40.80
7700;DHT22;3892;47.794;19.126;2023-06-14T09:09:03;25.30;41.00
7700;DHT22;3892;47.794;19.126;2023-06-14T09:11:31;25.40;41.40
7700;DHT22;3892;47.794;19.126;2023-06-14T09:14:01;25.40;41.20
7700;DHT22;3892;47.794;19.126;2023-06-14T09:16:32;25.40;41.40
7700;DHT22;3892;47.794;19.126;2023-06-14T09:19:00;25.50;41.50
7700;DHT22;3892;47.794;19.126;2023-06-14T09:21:35;25.60;41.70
7700;DHT22;3892;47.794;19.126;2023-06-14T09:24:04;25.70;41.70
7700;DHT22;3892;47.794;19.126;2023-06-14T09:26:33;25.80;41.60
7700;DHT22;3892;47.794;19.126;2023-06-14T09:29:05;25.80;41.80
7700;DHT22;3892;47.794;19.126;2023-06-14T09:31:35;25.90;42.20
7700;DHT22;3892;47.794;19.126;2023-06-14T09:34:03;26.00;41.80
7700;DHT22;3892;47.794;19.126;2023-06-14T09:36:32;26.00;41.70
7700;DHT22;3892;47.794;19.126;2023-06-14T09:39:03;26.10;40.80
7700;DHT22;3892;47.794;19.126;2023-06-14T09:41:33;26.20;41.20
7700;DHT22;3892;47.794;19.126;2023-06-14T09:44:03;26.30;41.70
7700;DHT22;3892;47.794;19.126;2023-06-14T09:46:35;26.40;41.70
7700;DHT22;3892;47.794;19.126;2023-06-14T09:49:04;26.50;41.90
7700;DHT22;3892;47.794;19.126;2023-06-14T09:51:33;26.60;41.00
7700;DHT22;3892;47.794;19.126;2023-06-14T09:54:04;26.50;40.20
7700;DHT22;3892;47.794;19.126;2023-06-14T09:56:36;26.50;39.90
7700;DHT22;3892;47.794;19.126;2023-06-14T09:59:05;26.50;39.20
7700;DHT22;3892;47.794;19.126;2023-06-14T10:01:36;26.50;39.00
7700;DHT22;3892;47.794;19.126;2023-06-14T10:04:09;26.50;39.60
7700;DHT22;3892;47.794;19.126;2023-06-14T10:06:40;26.50;39.80
7700;DHT22;3892;47.794;19.126;2023-06-14T10:09:10;26.50;40.40
7700;DHT22;3892;47.794;19.126;2023-06-14T10:11:38;26.50;39.70
7700;DHT22;3892;47.794;19.126;2023-06-14T10:14:12;26.50;41.20
7700;DHT22;3892;47.794;19.126;2023-06-14T10:16:47;26.50;40.70
7700;DHT22;3892;47.794;19.126;2023-06-14T10:19:20;26.50;40.00
7700;DHT22;3892;47.794;19.126;2023-06-14T10:21:55;26.50;40.10
7700;DHT22;3892;47.794;19.126;2023-06-14T10:24:30;26.50;40.80
7700;DHT22;3892;47.794;19.126;2023-06-14T10:27:00;26.50;40.80
7700;DHT22;3892;47.794;19.126;2023-06-14T10:29:28;26.50;40.70
7700;DHT22;3892;47.794;19.126;2023-06-14T10:31:59;26.50;40.20
7700;DHT22;3892;47.794;19.126;2023-06-14T10:34:29;26.50;40.20
7700;DHT22;3892;47.794;19.126;2023-06-14T10:37:04;26.50;40.80
7700;DHT22;3892;47.794;19.126;2023-06-14T10:39:38;26.60;41.10
7700;DHT22;3892;47.794;19.126;2023-06-14T10:42:07;26.60;41.00
7700;DHT22;3892;47.794;19.126;2023-06-14T10:44:45;26.60;41.20
7700;DHT22;3892;47.794;19.126;2023-06-14T10:47:27;26.70;40.50
7700;DHT22;3892;47.794;19.126;2023-06-14T10:49:57;26.60;39.90
7700;DHT22;3892;47.794;19.126;2023-06-14T10:52:27;26.60;39.70
7700;DHT22;3892;47.794;19.126;2023-06-14T10:55:03;26.70;40.00
7700;DHT22;3892;47.794;19.126;2023-06-14T10:57:33;26.70;39.30
7700;DHT22;3892;47.794;19.126;2023-06-14T11:00:07;26.60;37.40
7700;DHT22;3892;47.794;19.126;2023-06-14T11:03:23;26.50;38.10
7700;DHT22;3892;47.794;19.126;2023-06-14T11:05:57;26.50;37.10
7700;DHT22;3892;47.794;19.126;2023-06-14T11:09:07;26.50;37.40
7700;DHT22;3892;47.794;19.126;2023-06-14T11:11:42;26.50;37.70
7700;DHT22;3892;47.794;19.126;2023-06-14T11:14:10;26.50;37.70
7700;DHT22;3892;47.794;19.126;2023-06-14T11:16:38;26.60;37.70
7700;DHT22;3892;47.794;19.126;2023-06-14T11:19:06;26.60;37.60
7700;DHT22;3892;47.794;19.126;2023-06-14T11:21:40;26.70;37.90
7700;DHT22;3892;47.794;19.126;2023-06-14T11:24:10;26.70;38.00
7700;DHT22;3892;47.794;19.126;2023-06-14T11:26:40;26.70;38.80
7700;DHT22;3892;47.794;19.126;2023-06-14T11:29:08;26.70;38.10
7700;DHT22;3892;47.794;19.126;2023-06-14T11:31:36;26.80;38.90
7700;DHT22;3892;47.794;19.126;2023-06-14T11:34:04;26.90;38.30
7700;DHT22;3892;47.794;19.126;2023-06-14T11:36:34;26.90;38.10
7700;DHT22;3892;47.794;19.126;2023-06-14T11:39:03;26.80;37.50
7700;DHT22;3892;47.794;19.126;2023-06-14T11:41:34;26.80;37.30
7700;DHT22;3892;47.794;19.126;2023-06-14T11:44:04;26.90;37.70
7700;DHT22;3892;47.794;19.126;2023-06-14T11:46:32;27.00;38.90
7700;DHT22;3892;47.794;19.126;2023-06-14T11:49:01;27.00;38.90
7700;DHT22;3892;47.794;19.126;2023-06-14T11:51:30;27.10;39.20
7700;DHT22;3892;47.794;19.126;2023-06-14T11:53:58;27.10;37.70
7700;DHT22;3892;47.794;19.126;2023-06-14T11:56:27;27.00;37.30
7700;DHT22;3892;47.794;19.126;2023-06-14T11:58:55;27.10;36.50
7700;DHT22;3892;47.794;19.126;2023-06-14T12:01:25;27.20;35.30
7700;DHT22;3892;47.794;19.126;2023-06-14T12:03:54;27.20;34.20
7700;DHT22;3892;47.794;19.126;2023-06-14T12:06:30;27.30;35.00
7700;DHT22;3892;47.794;19.126;2023-06-14T12:09:04;27.40;34.10
7700;DHT22;3892;47.794;19.126;2023-06-14T12:11:34;27.50;35.20
7700;DHT22;3892;47.794;19.126;2023-06-14T12:14:04;27.60;35.80
7700;DHT22;3892;47.794;19.126;2023-06-14T12:16:35;27.70;36.00
7700;DHT22;3892;47.794;19.126;2023-06-14T12:19:13;27.80;36.10
7700;DHT22;3892;47.794;19.126;2023-06-14T12:21:41;27.90;36.10
7700;DHT22;3892;47.794;19.126;2023-06-14T12:24:11;28.10;36.00
7700;DHT22;3892;47.794;19.126;2023-06-14T12:26:40;28.20;35.30
7700;DHT22;3892;47.794;19.126;2023-06-14T12:29:09;28.30;36.30
7700;DHT22;3892;47.794;19.126;2023-06-14T12:31:40;28.40;36.40
7700;DHT22;3892;47.794;19.126;2023-06-14T12:34:09;28.50;35.30
7700;DHT22;3892;47.794;19.126;2023-06-14T12:36:37;28.60;35.10
7700;DHT22;3892;47.794;19.126;2023-06-14T12:39:10;28.60;33.70
7700;DHT22;3892;47.794;19.126;2023-06-14T12:41:38;28.70;33.80
7700;DHT22;3892;47.794;19.126;2023-06-14T12:44:08;28.60;33.80
7700;DHT22;3892;47.794;19.126;2023-06-14T12:46:36;28.80;34.00
7700;DHT22;3892;47.794;19.126;2023-06-14T12:49:09;28.90;33.60
7700;DHT22;3892;47.794;19.126;2023-06-14T12:51:38;29.00;33.40
7700;DHT22;3892;47.794;19.126;2023-06-14T12:54:06;29.20;33.50
7700;DHT22;3892;47.794;19.126;2023-06-14T12:56:34;29.30;33.40
7700;DHT22;3892;47.794;19.126;2023-06-14T12:59:03;29.40;33.30
7700;DHT22;3892;47.794;19.126;2023-06-14T13:01:31;29.50;34.20
7700;DHT22;3892;47.794;19.126;2023-06-14T13:03:59;29.60;33.30
7700;DHT22;3892;47.794;19.126;2023-06-14T13:06:29;29.50;32.30
7700;DHT22;3892;47.794;19.126;2023-06-14T13:08:58;29.60;32.60
7700;DHT22;3892;47.794;19.126;2023-06-14T13:11:26;29.60;32.10
7700;DHT22;3892;47.794;19.126;2023-06-14T13:13:54;29.70;31.90
7700;DHT22;3892;47.794;19.126;2023-06-14T13:16:23;29.70;31.50
7700;DHT22;3892;47.794;19.126;2023-06-14T13:18:51;29.70;31.00
7700;DHT22;3892;47.794;19.126;2023-06-14T13:21:19;29.70;31.30
7700;DHT22;3892;47.794;19.126;2023-06-14T13:23:49;29.70;31.80
7700;DHT22;3892;47.794;19.126;2023-06-14T13:26:17;29.70;32.10
7700;DHT22;3892;47.794;19.126;2023-06-14T13:28:46;29.70;31.50
7700;DHT22;3892;47.794;19.126;2023-06-14T13:31:14;29.70;31.80
7700;DHT22;3892;47.794;19.126;2023-06-14T13:33:42;29.70;31.70
7700;DHT22;3892;47.794;19.126;2023-06-14T13:36:10;29.70;32.00
7700;DHT22;3892;47.794;19.126;2023-06-14T13:38:38;29.60;32.10
7700;DHT22;3892;47.794;19.126;2023-06-14T13:41:07;29.60;32.20
7700;DHT22;3892;47.794;19.126;2023-06-14T13:43:36;29.50;32.10
7700;DHT22;3892;47.794;19.126;2023-06-14T13:46:04;29.50;32.40
7700;DHT22;3892;47.794;19.126;2023-06-14T13:48:32;29.50;32.50
7700;DHT22;3892;47.794;19.126;2023-06-14T13:51:00;29.50;32.10
7700;DHT22;3892;47.794;19.126;2023-06-14T13:53:31;29.50;32.50
7700;DHT22;3892;47.794;19.126;2023-06-14T13:55:59;29.50;32.30
7700;DHT22;3892;47.794;19.126;2023-06-14T13:58:28;29.40;31.50
7700;DHT22;3892;47.794;19.126;2023-06-14T14:00:56;29.40;30.50
7700;DHT22;3892;47.794;19.126;2023-06-14T14:03:26;29.40;31.00
7700;DHT22;3892;47.794;19.126;2023-06-14T14:05:54;29.30;30.60
7700;DHT22;3892;47.794;19.126;2023-06-14T14:08:23;29.30;30.50
7700;DHT22;3892;47.794;19.126;2023-06-14T14:10:51;29.20;29.60
7700;DHT22;3892;47.794;19.126;2023-06-14T14:13:20;29.10;29.90
7700;DHT22;3892;47.794;19.126;2023-06-14T14:15:50;29.10;29.70
7700;DHT22;3892;47.794;19.126;2023-06-14T14:18:18;29.00;30.80
7700;DHT22;3892;47.794;19.126;2023-06-14T14:20:47;29.10;30.40
7700;DHT22;3892;47.794;19.126;2023-06-14T14:23:16;29.10;30.80
7700;DHT22;3892;47.794;19.126;2023-06-14T14:25:44;29.10;30.80
7700;DHT22;3892;47.794;19.126;2023-06-14T14:28:12;29.20;31.30
7700;DHT22;3892;47.794;19.126;2023-06-14T14:30:42;29.10;31.10
7700;DHT22;3892;47.794;19.126;2023-06-14T14:33:12;29.10;31.30
7700;DHT22;3892;47.794;19.126;2023-06-14T14:35:42;29.00;31.60
7700;DHT22;3892;47.794;19.126;2023-06-14T14:38:12;28.90;32.30
7700;DHT22;3892;47.794;19.126;2023-06-14T14:40:41;28.90;32.60
7700;DHT22;3892;47.794;19.126;2023-06-14T14:43:09;28.90;32.10
7700;DHT22;3892;47.794;19.126;2023-06-14T14:45:37;28.80;31.80
7700;DHT22;3892;47.794;19.126;2023-06-14T14:48:05;28.90;32.30
7700;DHT22;3892;47.794;19.126;2023-06-14T14:50:35;28.80;32.70
7700;DHT22;3892;47.794;19.126;2023-06-14T14:53:04;28.90;33.00
7700;DHT22;3892;47.794;19.126;2023-06-14T14:55:32;28.80;32.30
7700;DHT22;3892;47.794;19.126;2023-06-14T14:58:03;28.80;31.60
7700;DHT22;3892;47.794;19.126;2023-06-14T15:00:31;28.70;30.60
7700;DHT22;3892;47.794;19.126;2023-06-14T15:02:59;28.60;31.30
7700;DHT22;3892;47.794;19.126;2023-06-14T15:05:27;28.60;30.60
7700;DHT22;3892;47.794;19.126;2023-06-14T15:07:57;28.50;31.10
7700;DHT22;3892;47.794;19.126;2023-06-14T15:10:25;28.50;31.10
7700;DHT22;3892;47.794;19.126;2023-06-14T15:12:53;28.50;31.30
7700;DHT22;3892;47.794;19.126;2023-06-14T15:15:21;28.40;31.50
7700;DHT22;3892;47.794;19.126;2023-06-14T15:17:50;28.40;31.50
7700;DHT22;3892;47.794;19.126;2023-06-14T15:20:18;28.40;32.00
7700;DHT22;3892;47.794;19.126;2023-06-14T15:22:46;28.30;32.00
7700;DHT22;3892;47.794;19.126;2023-06-14T15:25:17;28.30;32.40
7700;DHT22;3892;47.794;19.126;2023-06-14T15:27:45;28.30;32.40
7700;DHT22;3892;47.794;19.126;2023-06-14T15:30:13;28.30;32.30
7700;DHT22;3892;47.794;19.126;2023-06-14T15:32:41;28.30;32.20
7700;DHT22;3892;47.794;19.126;2023-06-14T15:35:10;28.20;32.30
7700;DHT22;3892;47.794;19.126;2023-06-14T15:37:38;28.30;32.30
7700;DHT22;3892;47.794;19.126;2023-06-14T15:40:07;28.20;32.30
7700;DHT22;3892;47.794;19.126;2023-06-14T15:42:37;28.30;32.60
7700;DHT22;3892;47.794;19.126;2023-06-14T15:45:06;28.30;32.20
7700;DHT22;3892;47.794;19.126;2023-06-14T15:47:34;28.30;32.40
7700;DHT22;3892;47.794;19.126;2023-06-14T15:50:02;28.40;32.20
7700;DHT22;3892;47.794;19.126;2023-06-14T15:52:31;28.40;31.40
7700;DHT22;3892;47.794;19.126;2023-06-14T15:55:00;28.40;31.70
7700;DHT22;3892;47.794;19.126;2023-06-14T15:57:30;28.50;32.10
7700;DHT22;3892;47.794;19.126;2023-06-14T15:59:59;28.50;32.00